Notice: iconv(): Detected an illegal character in input string in /home/meteolat/www/weather28/wsLangFunctions.php on line 115

Notice: iconv(): Detected an illegal character in input string in /home/meteolat/www/weather28/wsLangFunctions.php on line 115
Météorologique de l'aéroport - Météo La Turballe

Il s'agit d'un problème de communication. Allez directement sur le site Meteoalarm : www.meteoalarm.eu et vérifier les avertissements météorologiques..


Visitez nos sites météorologiques autres:

Template documentation
and downloads

And another site



Rapports METAR proximité

   
EHVK - Volkel Rnlafb, Netherlands
Distance: SO 18 km
Mise à jour: 09-08-2022 10:25
Claires  
Claires  
   Vent: NNE 14.8 km/h
Vent: NNE 14.8 km/h
Température: 21°C
Point de rosée: 14°C
Humidité: 64%
Baromètre: 1028 hPa
Nuageux: Claires
visibilité: More than 10 km
Détails des nuages: Claires
EHVK 090825Z AUTO 03008KT 330V060 9999 NCD 21/14 Q1028 BLU NOSIG
EDLV - Niederrhein, Germany
Distance: SE 25 km
Mise à jour: 09-08-2022 10:20
Claires  
Claires  
   Vent: varie 11.1 km/h
Vent: varie 11.1 km/h
Température: 20°C
Point de rosée: 14°C
Humidité: 69%
Baromètre: 1028 hPa
visibilité: More than 10 km
Détails des nuages: Claires
EDLV 090820Z VRB06KT CAVOK 20/14 Q1028
EHDL - Deelen Rnlafb, Netherlands
Distance: N 35 km
Mise à jour: 09-08-2022 10:25
Claires  
Claires  
   Vent: NE 14.8 km/h
Vent: NE 14.8 km/h
Température: 20°C
Point de rosée: 14°C
Humidité: 69%
Baromètre: 1028 hPa
Nuageux: Claires
visibilité: More than 10 km
Détails des nuages: Claires
EHDL 090825Z AUTO 04008KT 330V110 9999 NCD 20/14 Q1028 BLU
EHEH - Eindhoven Rnlafb, Netherlands
Distance: SO 48 km
Mise à jour: 09-08-2022 10:25
Claires  
Claires  
   Vent: NNE 16.7 km/h
Vent: NNE 16.7 km/h
Température: 22°C
Point de rosée: 14°C
Humidité: 61%
Baromètre: 1028 hPa
Nuageux: Claires
visibilité: More than 10 km
Détails des nuages: Claires
EHEH 090825Z AUTO 02009KT 330V080 9999 NCD 22/14 Q1028 BLU NOSIG
EHGR - Gilze-Rijen Rnla, Netherlands
Distance: OSO 70 km
Mise à jour: 09-08-2022 10:25
Claires  
Claires  
   Vent: NNE 16.7 km/h
Vent: NNE 16.7 km/h
Température: 21°C
Point de rosée: 14°C
Humidité: 64%
Baromètre: 1028 hPa
Nuageux: Claires
visibilité: More than 10 km
Détails des nuages: Claires
EHGR 090825Z AUTO 02009KT 310V060 9999 NCD 21/14 Q1028 BLU NOSIG
EBBL - Kleine-Brogel(Ba, Belgium
Distance: SSO 71 km
Mise à jour: 09-08-2022 10:25
Claires  
Claires  
   Vent: NNE 13 km/h
Vent: NNE 13 km/h
Température: 22°C
Point de rosée: 14°C
Humidité: 61%
Baromètre: 1027 hPa
Nuageux: Claires
visibilité: More than 10 km
Détails des nuages: Claires
EBBL 090825Z 02007KT 9999 SKC 22/14 Q1027 BLU BLU

Script développé par  Saratoga-weather.org Adapté pour le modèle par  Weerstation Leuven

Équipement que nous utilisons:

Station de Météo
Davis VUE

Davis VUE